Agia Marina — SX5375 — position and weather

sailwx.info

Track history (hours):
 
Tides and Currents Weather Stations Pressure Air Temp Water Temp Dewpoint Dewpoint Depression Visibility Wind Speed Wind Dir Waves Ship Positions

Agia Marina

Last reported at 2014-Jul-23 17:14 UTC. Time now 2014-Jul-24 22:59 UTC.
Position N 37°37' E 023°57'.

Length 59 m; draft 2.5 m.

Type: Cargo ship. MMSI: 237042500.

Date/timePositionNaut miles runAvg speedWind from/ knotsBaromVisibWave heightAir tempDewpointWater temp
2014-Jul-23 17:14N 37°37' E 023°57'5 6.5
2014-Jul-23 16:29N 37°38' E 023°51'6 6.9
2014-Jul-23 15:33N 37°40' E 023°43'6 6.4
2014-Jul-23 14:33N 37°45' E 023°39'6 6.5
2014-Jul-23 13:33N 37°51' E 023°37'6 6.3
2014-Jul-23 12:33N 37°57' E 023°34'5 4.5
2014-Jul-23 11:29N 38°02' E 023°36'0 0.0
2014-Jul-23 09:33N 38°02' E 023°36'0 0.0
2014-Jul-23 08:32N 38°02' E 023°36'0 0.0
2014-Jul-23 07:29N 38°02' E 023°36'0 0.0
2014-Jul-23 06:32N 38°02' E 023°36'0 0.0
2014-Jul-23 00:27N 38°02' E 023°36'0 0.0
2014-Jul-22 23:33N 38°02' E 023°36'0 0.0
2014-Jul-22 22:25N 38°02' E 023°36'0 0.0
2014-Jul-22 21:33N 38°02' E 023°36'0 0.0
2014-Jul-22 20:31N 38°02' E 023°36'0 0.0
2014-Jul-22 19:32N 38°02' E 023°36'0 0.0
2014-Jul-22 18:32N 38°02' E 023°36'0 0.0
2014-Jul-22 17:32N 38°02' E 023°36'0 0.0
2014-Jul-22 16:32N 38°02' E 023°36'0 0.0
2014-Jul-22 15:19N 38°02' E 023°36'0 0.0
2014-Jul-22 14:33N 38°02' E 023°36'0 0.0
2014-Jul-22 13:31N 38°02' E 023°36'0 0.0
2014-Jul-22 12:33N 38°02' E 023°36'0 0.0
2014-Jul-22 11:31N 38°02' E 023°36'0 0.0
2014-Jul-22 10:30N 38°02' E 023°36'0 0.0
2014-Jul-22 09:25N 38°02' E 023°36'0 0.0
2014-Jul-22 08:29N 38°02' E 023°36'0 0.0
2014-Jul-22 07:22N 38°02' E 023°36'0 0.0
2014-Jul-22 06:23N 38°02' E 023°36'0 0.0
2014-Jul-22 04:20N 38°02' E 023°36'0 0.0
2014-Jul-22 03:19N 38°02' E 023°36'0 0.0
2014-Jul-22 02:26N 38°02' E 023°36'0 0.0
2014-Jul-22 01:32N 38°02' E 023°36'0 0.0
2014-Jul-22 00:33N 38°02' E 023°36'0 0.0
2014-Jul-21 23:33N 38°02' E 023°36'0 0.0
2014-Jul-21 22:30N 38°02' E 023°36'0 0.0
2014-Jul-21 20:32N 38°02' E 023°36'0 0.2
2014-Jul-21 20:11N 38°02' E 023°36'5 7.2
2014-Jul-21 19:33N 38°01' E 023°30'6 5.7
2014-Jul-21 18:33N 37°57' E 023°24'7 7.5
2014-Jul-21 17:33N 37°50' E 023°24'5 5.2
2014-Jul-21 16:33N 37°45' E 023°26'0 0.0
2014-Jul-21 15:33N 37°45' E 023°26'0 0.1
2014-Jul-21 14:24N 37°45' E 023°25'5 6.0
2014-Jul-21 13:33N 37°49' E 023°29'7 6.8
2014-Jul-21 12:33N 37°54' E 023°34'6 5.9
2014-Jul-21 11:30N 38°01' E 023°34'2 1.7
2014-Jul-21 10:21N 38°02' E 023°36'0 0.0
2014-Jul-21 09:25N 38°02' E 023°36'0 0.0
2014-Jul-21 08:27N 38°02' E 023°36'0 0.0
2014-Jul-21 07:05N 38°02' E 023°36'0 0.0
2014-Jul-21 06:33N 38°02' E 023°36'0 0.0
2014-Jul-19 13:13N 38°02' E 023°36'0 0.0
2014-Jul-19 12:33N 38°02' E 023°36'0 0.0
2014-Jul-19 11:33N 38°02' E 023°36'0 0.0
2014-Jul-19 10:33N 38°02' E 023°36'0 0.0
2014-Jul-19 09:20N 38°02' E 023°36'0 0.0
2014-Jul-19 08:25N 38°02' E 023°36'0 0.0
2014-Jul-19 07:30N 38°02' E 023°36'0 0.0
2014-Jul-19 04:33N 38°02' E 023°36'0 0.0
2014-Jul-19 03:31N 38°02' E 023°36'0 0.0
2014-Jul-19 02:25N 38°02' E 023°36'0 0.0
2014-Jul-19 01:28N 38°02' E 023°36'0 0.0
2014-Jul-19 00:33N 38°02' E 023°36'0 0.0
2014-Jul-18 23:10N 38°02' E 023°36'0 0.0
2014-Jul-18 20:33N 38°02' E 023°36'0 0.0
2014-Jul-18 19:23N 38°02' E 023°36'0 0.0
2014-Jul-18 18:33N 38°02' E 023°36'0 0.0
2014-Jul-18 17:21N 38°02' E 023°36'0 0.0
2014-Jul-18 16:30N 38°02' E 023°36'0 0.0
2014-Jul-18 15:25N 38°02' E 023°36'0 0.0
2014-Jul-18 14:31N 38°02' E 023°36'0 0.0
2014-Jul-18 13:25N 38°02' E 023°36'0 0.0
2014-Jul-18 12:24N 38°02' E 023°36'0 0.0
2014-Jul-18 11:18N 38°02' E 023°36'0 0.0
2014-Jul-18 00:29N 38°02' E 023°36'0 0.0
2014-Jul-17 23:30N 38°02' E 023°36'0 0.0
2014-Jul-17 22:32N 38°02' E 023°36'0 0.0
2014-Jul-17 21:29N 38°02' E 023°36'0 0.0
2014-Jul-17 20:33N 38°02' E 023°36'0 0.0
2014-Jul-17 19:33N 38°02' E 023°36'0 0.0
2014-Jul-17 18:33N 38°02' E 023°36'0 0.0
2014-Jul-17 17:27N 38°02' E 023°36'0 0.0
2014-Jul-17 16:33N 38°02' E 023°36'0 0.0
2014-Jul-17 15:14N 38°02' E 023°36'0 0.0
2014-Jul-17 14:33N 38°02' E 023°36'0 0.0
2014-Jul-17 13:13N 38°02' E 023°36'0 0.0
2014-Jul-17 11:30N 38°02' E 023°36'0 0.0
2014-Jul-17 10:32N 38°02' E 023°36'0 0.0
2014-Jul-17 09:28N 38°02' E 023°36'0 0.0
2014-Jul-17 08:33N 38°02' E 023°36'0 0.0
2014-Jul-17 07:31N 38°02' E 023°36'0 0.0
2014-Jul-17 06:29N 38°02' E 023°36'0 0.0
2014-Jul-17 05:21N 38°02' E 023°36'0 0.0
2014-Jul-17 04:28N 38°02' E 023°36'0 0.0
2014-Jul-17 02:17N 38°02' E 023°36'0 0.0
2014-Jul-17 00:29N 38°02' E 023°36'0 0.0
2014-Jul-16 22:31N 38°02' E 023°36'0 0.0
2014-Jul-16 20:14N 38°02' E 023°36'0 0.0
2014-Jul-16 19:33N 38°02' E 023°36'5 4.6
2014-Jul-16 18:32N 38°01' E 023°30'6 5.9
2014-Jul-16 17:33N 37°57' E 023°24'7 7.1
2014-Jul-16 16:33N 37°50' E 023°24'5 1.0
2014-Jul-16 11:31N 37°45' E 023°25'6 5.8
2014-Jul-16 10:25N 37°40' E 023°30'42 6.8
2014-Jul-16 04:14N 37°30' E 024°22'18 6.8
2014-Jul-16 01:33N 37°23' E 024°44'8 7.9
2014-Jul-16 00:33N 37°21' E 024°53'8 7.7
2014-Jul-15 23:33N 37°21' E 025°03'7 7.5
2014-Jul-15 22:33N 37°21' E 025°12'8 7.9
2014-Jul-15 21:33N 37°23' E 025°22'7 7.4
2014-Jul-15 20:33N 37°25' E 025°31'7 6.9
2014-Jul-15 19:33N 37°30' E 025°37'8 7.1
2014-Jul-15 18:29N 37°37' E 025°41'26 3.7
2014-Jul-15 11:29N 37°39' E 026°14'7 6.6
2014-Jul-15 10:28N 37°42' E 026°21'6 6.3
2014-Jul-15 09:32N 37°44' E 026°28'7 7.0
2014-Jul-15 08:33N 37°47' E 026°36'4 1.5
2014-Jul-15 06:04N 37°48' E 026°41'6 2.3
2014-Jul-15 03:28N 37°45' E 026°34'10 7.4
2014-Jul-15 02:09N 37°40' E 026°24'6 2.1
2014-Jul-14 23:33N 37°37' E 026°18'0 0.0
2014-Jul-14 22:33N 37°37' E 026°18'0 0.0
2014-Jul-14 21:30N 37°37' E 026°18'0 0.0
2014-Jul-14 20:33N 37°37' E 026°18'0 0.0
2014-Jul-14 19:32N 37°37' E 026°18'1 1.3
2014-Jul-14 18:33N 37°37' E 026°19'34 3.8
2014-Jul-14 09:33N 37°09' E 026°45'5 0.3
2014-Jul-13 18:21N 37°07' E 026°50'  
Track history (hours):
 
Tides and Currents Weather Stations Pressure Air Temp Water Temp Dewpoint Dewpoint Depression Visibility Wind Speed Wind Dir Waves Ship Positions

Agia Marina

Last reported at 2014-Jul-23 17:14 UTC. Time now 2014-Jul-24 22:59 UTC.
Position N 37°37' E 023°57'.

Length 59 m; draft 2.5 m.

Type: Cargo ship. MMSI: 237042500.

Date/timePositionNaut miles runAvg speedWind from/ knotsBaromVisibWave heightAir tempDewpointWater temp
2014-Jul-23 17:14N 37°37' E 023°57'5 6.5
2014-Jul-23 16:29N 37°38' E 023°51'6 6.9
2014-Jul-23 15:33N 37°40' E 023°43'6 6.4
2014-Jul-23 14:33N 37°45' E 023°39'6 6.5
2014-Jul-23 13:33N 37°51' E 023°37'6 6.3
2014-Jul-23 12:33N 37°57' E 023°34'5 4.5
2014-Jul-23 11:29N 38°02' E 023°36'0 0.0
2014-Jul-23 09:33N 38°02' E 023°36'0 0.0
2014-Jul-23 08:32N 38°02' E 023°36'0 0.0
2014-Jul-23 07:29N 38°02' E 023°36'0 0.0
2014-Jul-23 06:32N 38°02' E 023°36'0 0.0
2014-Jul-23 00:27N 38°02' E 023°36'0 0.0
2014-Jul-22 23:33N 38°02' E 023°36'0 0.0
2014-Jul-22 22:25N 38°02' E 023°36'0 0.0
2014-Jul-22 21:33N 38°02' E 023°36'0 0.0
2014-Jul-22 20:31N 38°02' E 023°36'0 0.0
2014-Jul-22 19:32N 38°02' E 023°36'0 0.0
2014-Jul-22 18:32N 38°02' E 023°36'0 0.0
2014-Jul-22 17:32N 38°02' E 023°36'0 0.0
2014-Jul-22 16:32N 38°02' E 023°36'0 0.0
2014-Jul-22 15:19N 38°02' E 023°36'0 0.0
2014-Jul-22 14:33N 38°02' E 023°36'0 0.0
2014-Jul-22 13:31N 38°02' E 023°36'0 0.0
2014-Jul-22 12:33N 38°02' E 023°36'0 0.0
2014-Jul-22 11:31N 38°02' E 023°36'0 0.0
2014-Jul-22 10:30N 38°02' E 023°36'0 0.0
2014-Jul-22 09:25N 38°02' E 023°36'0 0.0
2014-Jul-22 08:29N 38°02' E 023°36'0 0.0
2014-Jul-22 07:22N 38°02' E 023°36'0 0.0
2014-Jul-22 06:23N 38°02' E 023°36'0 0.0
2014-Jul-22 04:20N 38°02' E 023°36'0 0.0
2014-Jul-22 03:19N 38°02' E 023°36'0 0.0
2014-Jul-22 02:26N 38°02' E 023°36'0 0.0
2014-Jul-22 01:32N 38°02' E 023°36'0 0.0
2014-Jul-22 00:33N 38°02' E 023°36'0 0.0
2014-Jul-21 23:33N 38°02' E 023°36'0 0.0
2014-Jul-21 22:30N 38°02' E 023°36'0 0.0
2014-Jul-21 20:32N 38°02' E 023°36'0 0.2
2014-Jul-21 20:11N 38°02' E 023°36'5 7.2
2014-Jul-21 19:33N 38°01' E 023°30'6 5.7
2014-Jul-21 18:33N 37°57' E 023°24'7 7.5
2014-Jul-21 17:33N 37°50' E 023°24'5 5.2
2014-Jul-21 16:33N 37°45' E 023°26'0 0.0
2014-Jul-21 15:33N 37°45' E 023°26'0 0.1
2014-Jul-21 14:24N 37°45' E 023°25'5 6.0
2014-Jul-21 13:33N 37°49' E 023°29'7 6.8
2014-Jul-21 12:33N 37°54' E 023°34'6 5.9
2014-Jul-21 11:30N 38°01' E 023°34'2 1.7
2014-Jul-21 10:21N 38°02' E 023°36'0 0.0
2014-Jul-21 09:25N 38°02' E 023°36'0 0.0
2014-Jul-21 08:27N 38°02' E 023°36'0 0.0
2014-Jul-21 07:05N 38°02' E 023°36'0 0.0
2014-Jul-21 06:33N 38°02' E 023°36'0 0.0
2014-Jul-19 13:13N 38°02' E 023°36'0 0.0
2014-Jul-19 12:33N 38°02' E 023°36'0 0.0
2014-Jul-19 11:33N 38°02' E 023°36'0 0.0
2014-Jul-19 10:33N 38°02' E 023°36'0 0.0
2014-Jul-19 09:20N 38°02' E 023°36'0 0.0
2014-Jul-19 08:25N 38°02' E 023°36'0 0.0
2014-Jul-19 07:30N 38°02' E 023°36'0 0.0
2014-Jul-19 04:33N 38°02' E 023°36'0 0.0
2014-Jul-19 03:31N 38°02' E 023°36'0 0.0
2014-Jul-19 02:25N 38°02' E 023°36'0 0.0
2014-Jul-19 01:28N 38°02' E 023°36'0 0.0
2014-Jul-19 00:33N 38°02' E 023°36'0 0.0
2014-Jul-18 23:10N 38°02' E 023°36'0 0.0
2014-Jul-18 20:33N 38°02' E 023°36'0 0.0
2014-Jul-18 19:23N 38°02' E 023°36'0 0.0
2014-Jul-18 18:33N 38°02' E 023°36'0 0.0
2014-Jul-18 17:21N 38°02' E 023°36'0 0.0
2014-Jul-18 16:30N 38°02' E 023°36'0 0.0
2014-Jul-18 15:25N 38°02' E 023°36'0 0.0
2014-Jul-18 14:31N 38°02' E 023°36'0 0.0
2014-Jul-18 13:25N 38°02' E 023°36'0 0.0
2014-Jul-18 12:24N 38°02' E 023°36'0 0.0
2014-Jul-18 11:18N 38°02' E 023°36'0 0.0
2014-Jul-18 00:29N 38°02' E 023°36'0 0.0
2014-Jul-17 23:30N 38°02' E 023°36'0 0.0
2014-Jul-17 22:32N 38°02' E 023°36'0 0.0
2014-Jul-17 21:29N 38°02' E 023°36'0 0.0
2014-Jul-17 20:33N 38°02' E 023°36'0 0.0
2014-Jul-17 19:33N 38°02' E 023°36'0 0.0
2014-Jul-17 18:33N 38°02' E 023°36'0 0.0
2014-Jul-17 17:27N 38°02' E 023°36'0 0.0
2014-Jul-17 16:33N 38°02' E 023°36'0 0.0
2014-Jul-17 15:14N 38°02' E 023°36'0 0.0
2014-Jul-17 14:33N 38°02' E 023°36'0 0.0
2014-Jul-17 13:13N 38°02' E 023°36'0 0.0
2014-Jul-17 11:30N 38°02' E 023°36'0 0.0
2014-Jul-17 10:32N 38°02' E 023°36'0 0.0
2014-Jul-17 09:28N 38°02' E 023°36'0 0.0
2014-Jul-17 08:33N 38°02' E 023°36'0 0.0
2014-Jul-17 07:31N 38°02' E 023°36'0 0.0
2014-Jul-17 06:29N 38°02' E 023°36'0 0.0
2014-Jul-17 05:21N 38°02' E 023°36'0 0.0
2014-Jul-17 04:28N 38°02' E 023°36'0 0.0
2014-Jul-17 02:17N 38°02' E 023°36'0 0.0
2014-Jul-17 00:29N 38°02' E 023°36'0 0.0
2014-Jul-16 22:31N 38°02' E 023°36'0 0.0
2014-Jul-16 20:14N 38°02' E 023°36'0 0.0
2014-Jul-16 19:33N 38°02' E 023°36'5 4.6
2014-Jul-16 18:32N 38°01' E 023°30'6 5.9
2014-Jul-16 17:33N 37°57' E 023°24'7 7.1
2014-Jul-16 16:33N 37°50' E 023°24'5 1.0
2014-Jul-16 11:31N 37°45' E 023°25'6 5.8
2014-Jul-16 10:25N 37°40' E 023°30'42 6.8
2014-Jul-16 04:14N 37°30' E 024°22'18 6.8
2014-Jul-16 01:33N 37°23' E 024°44'8 7.9
2014-Jul-16 00:33N 37°21' E 024°53'8 7.7
2014-Jul-15 23:33N 37°21' E 025°03'7 7.5
2014-Jul-15 22:33N 37°21' E 025°12'8 7.9
2014-Jul-15 21:33N 37°23' E 025°22'7 7.4
2014-Jul-15 20:33N 37°25' E 025°31'7 6.9
2014-Jul-15 19:33N 37°30' E 025°37'8 7.1
2014-Jul-15 18:29N 37°37' E 025°41'26 3.7
2014-Jul-15 11:29N 37°39' E 026°14'7 6.6
2014-Jul-15 10:28N 37°42' E 026°21'6 6.3
2014-Jul-15 09:32N 37°44' E 026°28'7 7.0
2014-Jul-15 08:33N 37°47' E 026°36'4 1.5
2014-Jul-15 06:04N 37°48' E 026°41'6 2.3
2014-Jul-15 03:28N 37°45' E 026°34'10 7.4
2014-Jul-15 02:09N 37°40' E 026°24'6 2.1
2014-Jul-14 23:33N 37°37' E 026°18'0 0.0
2014-Jul-14 22:33N 37°37' E 026°18'0 0.0
2014-Jul-14 21:30N 37°37' E 026°18'0 0.0
2014-Jul-14 20:33N 37°37' E 026°18'0 0.0
2014-Jul-14 19:32N 37°37' E 026°18'1 1.3
2014-Jul-14 18:33N 37°37' E 026°19'34 3.8
2014-Jul-14 09:33N 37°09' E 026°45'5 0.3
2014-Jul-13 18:21N 37°07' E 026°50'  

Dump ship's entire track history